ADDS METAR Data INFO
IDs: Format: Raw Decoded Include TAF

Data at: 2113 UTC 22 Oct 2017

KATS 222055Z AUTO 17009G16KT 110V200 10SM CLR 21/M01 A3024 RMK AO2
KATS 222035Z AUTO 14011G16KT 10SM CLR 20/M01 A3025 RMK AO2
KATS 222015Z AUTO 16008G13KT 120V190 10SM CLR 20/M01 A3026 RMK AO2
KATS 221955Z AUTO 14010KT 10SM CLR 20/M02 A3027 RMK AO2
KATS 221935Z AUTO 15009KT 10SM CLR 20/M02 A3028 RMK AO2
KATS 221915Z AUTO 16011KT 10SM CLR 19/M02 A3029 RMK AO2
KATS 221855Z AUTO 15010KT 10SM CLR 19/M02 A3031 RMK AO2
KATS 221835Z AUTO 16010KT 10SM CLR 18/M01 A3032 RMK AO2
KATS 221815Z AUTO 15011G16KT 10SM CLR 18/M01 A3032 RMK AO2
KATS 221755Z AUTO 15012KT 10SM CLR 18/M01 A3033 RMK AO2
KATS 221735Z AUTO 16010KT 10SM CLR 17/M02 A3034 RMK AO2
KATS 221715Z AUTO 16012KT 10SM CLR 16/M02 A3034 RMK AO2
KATS 221655Z AUTO 18007KT 140V210 10SM CLR 16/M00 A3035 RMK AO2
KATS 221635Z AUTO 14005KT 10SM CLR 15/01 A3035 RMK AO2
KATS 221615Z AUTO 00000KT 10SM CLR 14/00 A3036 RMK AO2
KATS 221555Z AUTO 00000KT 10SM CLR 13/00 A3037 RMK AO2
KATS 221535Z AUTO 36003KT 10SM CLR 12/M01 A3037 RMK AO2
KATS 221515Z AUTO VRB04KT 10SM CLR 11/M01 A3037 RMK AO2
KATS 221455Z AUTO 03004KT 10SM CLR 11/M01 A3036 RMK AO2
KATS 221435Z AUTO 00000KT 10SM CLR 11/M01 A3036 RMK AO2
KATS 221415Z AUTO 31003KT 10SM CLR 09/M01 A3035 RMK AO2
KATS 221355Z AUTO 28006KT 10SM CLR 08/M00 A3034 RMK AO2
KATS 221335Z AUTO 28005KT 10SM CLR 06/M01 A3033 RMK AO2
KATS 221315Z AUTO 29006KT 10SM CLR 05/M01 A3033 RMK AO2
KATS 221255Z AUTO 28007KT 10SM CLR 05/M01 A3033 RMK AO2
KATS 221235Z AUTO 28007KT 10SM CLR 06/M02 A3032 RMK AO2
KATS 221215Z AUTO 27008KT 10SM CLR 06/M02 A3032 RMK AO2
KATS 221155Z AUTO 27009KT 10SM CLR 06/M02 A3031 RMK AO2
KATS 221135Z AUTO 29009KT 10SM CLR 06/M02 A3031 RMK AO2
KATS 221115Z AUTO 29007KT 10SM CLR 08/M03 A3030 RMK AO2
KATS 221055Z AUTO 26009KT 10SM CLR 07/M02 A3030 RMK AO2
KATS 221035Z AUTO 34009KT 10SM CLR 08/M02 A3028 RMK AO2
KATS 221015Z AUTO 34010KT 10SM CLR 08/M01 A3027 RMK AO2
KATS 220955Z AUTO 34008KT 10SM CLR 08/M00 A3027 RMK AO2
KATS 220935Z AUTO 34010KT 10SM CLR 08/M01 A3026 RMK AO2
KATS 220915Z AUTO 34008KT 10SM CLR 08/M02 A3026 RMK AO2
KATS 220855Z AUTO 35009KT 10SM CLR 09/M03 A3025 RMK AO2
KATS 220835Z AUTO 36009KT 10SM CLR 09/M02 A3024 RMK AO2
KATS 220815Z AUTO 36011KT 10SM CLR 09/M02 A3023 RMK AO2
KATS 220755Z AUTO 34010KT 10SM CLR 10/M03 A3022 RMK AO2
KATS 220735Z AUTO 34008KT 10SM CLR 10/M01 A3021 RMK AO2
KATS 220715Z AUTO 35010KT 10SM CLR 10/M00 A3020 RMK AO2
KATS 220655Z AUTO 35008KT 10SM CLR 11/M00 A3019 RMK AO2
KATS 220635Z AUTO 34007KT 10SM CLR 11/01 A3018 RMK AO2
KATS 220615Z AUTO 30006KT 10SM CLR 11/01 A3018 RMK AO2
KATS 220555Z AUTO 34004KT 10SM CLR 12/01 A3017 RMK AO2
KATS 220535Z AUTO 00000KT 10SM CLR 14/00 A3016 RMK AO2
KATS 220515Z AUTO 35003KT 10SM CLR 14/00 A3015 RMK AO2
KATS 220455Z AUTO 00000KT 10SM CLR 13/01 A3015 RMK AO2
KATS 220435Z AUTO VRB05G12KT 10SM CLR 14/02 A3013 RMK AO2
KATS 220415Z AUTO 30008KT 10SM CLR 15/03 A3011 RMK AO2
KATS 220355Z AUTO 29009KT 10SM CLR 14/05 A3010 RMK AO2
KATS 220335Z AUTO 31007KT 10SM CLR 14/05 A3009 RMK AO2
KATS 220315Z AUTO 29007KT 10SM CLR 15/05 A3007 RMK AO2
KATS 220255Z AUTO 30008KT 10SM CLR 15/05 A3006 RMK AO2
KATS 220235Z AUTO 30010KT 10SM CLR 16/05 A3005 RMK AO2
KATS 220215Z AUTO 28009KT 10SM CLR 17/04 A3004 RMK AO2
KATS 220155Z AUTO 29008KT 10SM CLR 17/05 A3003 RMK AO2
KATS 220135Z AUTO 30008KT 10SM CLR 18/05 A3002 RMK AO2
KATS 220115Z AUTO 32006KT 10SM CLR 18/05 A3001 RMK AO2
KATS 220055Z AUTO 32008KT 10SM CLR 19/04 A3000 RMK AO2
KATS 220035Z AUTO 31006KT 10SM CLR 21/03 A2999 RMK AO2
KATS 220015Z AUTO 32006KT 10SM CLR 22/03 A2998 RMK AO2
KATS 212355Z AUTO 34010KT 10SM CLR 24/02 A2997 RMK AO2
KATS 212335Z AUTO 28011KT 10SM CLR 25/02 A2995 RMK AO2
KATS 212315Z AUTO 32010G21KT 280V350 10SM CLR 26/04 A2994 RMK AO2
KATS 212255Z AUTO 31012G18KT 10SM CLR 26/02 A2994 RMK AO2
KATS 212235Z AUTO 30015KT 10SM CLR 27/01 A2992 RMK AO2
KATS 212215Z AUTO 34017G27KT 10SM CLR 26/05 A2993 RMK AO2
KATS 212155Z AUTO 32020G27KT 10SM FEW110 27/02 A2992 RMK AO2
KATS 212135Z AUTO 30018G27KT 10SM CLR 27/01 A2991 RMK AO2
KATS 212115Z AUTO 33016KT 10SM CLR 27/04 A2990 RMK AO2
KATS 212055Z AUTO 01013KT 10SM CLR 26/08 A2989 RMK AO2
KATS 212035Z AUTO 34007G23KT 310V010 10SM SCT090 SCT110 27/06 A2989 RMK AO2
KATS 212015Z AUTO 32013KT 10SM BKN085 BKN110 26/06 A2989 RMK AO2
KATS 211955Z AUTO 31007G13KT 10SM SCT090 SCT120 26/07 A2990 RMK AO2
KATS 211935Z AUTO 34009KT 10SM SCT095 SCT120 26/07 A2990 RMK AO2
KATS 211915Z AUTO 31007G13KT 10SM SCT095 SCT120 26/07 A2990 RMK AO2
KATS 211855Z AUTO VRB04KT 10SM SCT100 SCT120 26/06 A2990 RMK AO2
KATS 211835Z AUTO VRB06G12KT 10SM CLR 26/07 A2990 RMK AO2
KATS 211815Z AUTO 32008KT 10SM CLR 26/07 A2992 RMK AO2
KATS 211755Z AUTO 26009G15KT 240V330 10SM FEW085 26/06 A2992 RMK AO2
KATS 211735Z AUTO 29010KT 10SM SCT085 25/07 A2993 RMK AO2
KATS 211715Z AUTO 30012KT 10SM CLR 26/06 A2993 RMK AO2
KATS 211655Z AUTO 27008G15KT 10SM CLR 25/06 A2992 RMK AO2
KATS 211635Z AUTO 25013G18KT 10SM CLR 25/07 A2992 RMK AO2
KATS 211615Z AUTO 23009G15KT 10SM CLR 24/08 A2992 RMK AO2
KATS 211555Z AUTO 25015KT 10SM CLR 24/09 A2992 RMK AO2
KATS 211535Z AUTO 22014KT 10SM CLR 23/10 A2992 RMK AO2
KATS 211515Z AUTO 21008KT 10SM CLR 20/11 A2992 RMK AO2
KATS 211455Z AUTO 17007KT 10SM CLR 19/10 A2992 RMK AO2
KATS 211435Z AUTO 18006KT 10SM CLR 18/10 A2991 RMK AO2
KATS 211415Z AUTO 18010KT 10SM CLR 16/09 A2989 RMK AO2
KATS 211355Z AUTO 18010KT 10SM CLR 15/09 A2989 RMK AO2
KATS 211335Z AUTO 18009KT 10SM CLR 15/09 A2988 RMK AO2
KATS 211315Z AUTO 17004KT 10SM CLR 14/10 A2988 RMK AO2
KATS 211255Z AUTO 00000KT 10SM CLR 14/11 A2988 RMK AO2
KATS 211235Z AUTO 00000KT 10SM CLR 12/12 A2987 RMK AO2
KATS 211215Z AUTO 15006KT 10SM CLR 13/12 A2986 RMK AO2
KATS 211155Z AUTO 16008KT 10SM CLR 13/13 A2985 RMK AO2
KATS 211135Z AUTO 18009KT 10SM CLR 14/13 A2984 RMK AO2
KATS 211115Z AUTO 17009KT 10SM CLR 14/14 A2983 RMK AO2
KATS 211055Z AUTO 17010KT 10SM CLR 14/14 A2983 RMK AO2
KATS 211035Z AUTO 17009KT 10SM CLR 13/13 A2983 RMK AO2
KATS 211015Z AUTO 18005KT 10SM CLR 12/12 A2982 RMK AO2
KATS 210955Z AUTO 17006KT 10SM CLR 13/13 A2981 RMK AO2
KATS 210935Z AUTO 10SM CLR 13/13 A2981 RMK AO2
KATS 210915Z AUTO 17003KT 10SM CLR 13/13 A2981 RMK AO2